Kezdőlap
METAR-TAF:

METAR-TAF

Repülőterek :

Nagybánya, Románia

földrajzi szélesség: 47-40N, földrajzi hosszúság: 023-35E, magasság: 218 m

Jelenlegi meteorológiai megfigyelések

A jelentés 18 perccel ezelõtt készült, 18:30 UTC
Szélcsend
Hőmérséklet 13°C
Páratartalom 88%
Légköri nyomás 1021 hPa
Látótávolság: 4600 m

METAR: LRBM 201830Z AUTO 00000KT 4600 FEW014/// SCT170/// BKN240/// 13/11 Q1021 RERA

Idő: 21:48 (18:48 UTC)

Előrejelzés

A jelentés 31 órával és 48 perccel ezelõtt készült, 11:00 UTC
Az előrejelzés 19-én 12 óra UTC és 19-én 21 óra UTC között érvényes
Nyugati szél 10 kt
Látótávolság 10 km, vagy több
felhőtlen 1500 m magasságban, és nincs gomolyfelhõ
19-én 16 óra UTC és 19-én 18 óra UTC között fokozatosan kialakuló
Különbözõ irányokból fújó szél 4 kt

TAF: LRBM 191100Z 1912/1921 27010KT CAVOK BECMG 1916/1918 VRB04KT

Meteorológiai megfigyelések és előrejelzések több, mint 4000 repülőtéren (METAR és TAF jelentéseket).

A térképen piros és sárga pontok jelzik az elérhető meteorológiai állomásokat.

Mozgassa az egeret a pont fölött, hogy megjelenjen az állomás neve.

Azután kattintson az időjárási megfigyelések és előrejelzések megtekintéséhez.

A térkép megváltoztatása: kattintson a fekete keresztel jelölt zöld gombra ráközelítéshez, a vonallal jelölt zöld gombra távolításhoz, vagy a zöld nyilakra a szomszédos térképek eléréséhez.


METAR-TAF: